Time;durP1;ratioP1;P1;durP2;ratioP2;P2;SDS_P1;SDS_P2;PMS_P1;PMS_P2;Temp;Humidity;BMP_temperature;BMP_pressure;BME280_temperature;BME280_humidity;BME280_pressure;Samples;Min_cycle;Max_cycle;Signal;HPM_P1;HPM_P2
2021/04/06 00:01:54;;;;;;;15.15;5.18;;;0.60;99.90;;;;;;4967481;28;20034;-55
2021/04/06 00:04:24;;;;;;;16.00;5.67;;;0.60;99.90;;;;;;4968831;28;20527;-54
2021/04/06 00:07:03;;;;;;;22.40;5.87;;;0.60;99.90;;;;;;4951822;28;20029;-57
2021/04/06 00:09:31;;;;;;;17.13;6.33;;;0.60;99.90;;;;;;4970363;28;20039;-57
2021/04/06 00:12:00;;;;;;;18.67;6.20;;;0.60;99.90;;;;;;4965698;28;20035;-53
2021/04/06 00:14:28;;;;;;;22.80;6.50;;;0.60;99.90;;;;;;4964530;28;20027;-53
2021/04/06 00:16:56;;;;;;;20.33;7.57;;;0.70;99.90;;;;;;4947556;28;20485;-56
2021/04/06 00:19:24;;;;;;;24.00;7.60;;;0.70;99.90;;;;;;4962013;28;20046;-55
2021/04/06 00:21:54;;;;;;;14.47;6.07;;;0.70;99.90;;;;;;4969659;28;20049;-55
2021/04/06 00:24:23;;;;;;;22.10;8.00;;;0.70;99.90;;;;;;4971616;28;20053;-56
2021/04/06 00:26:52;;;;;;;19.20;6.40;;;0.80;99.90;;;;;;4965927;28;20105;-54
2021/04/06 00:29:19;;;;;;;18.67;5.23;;;0.80;99.90;;;;;;4965208;28;20041;-56
2021/04/06 00:31:48;;;;;;;29.03;8.37;;;0.80;99.90;;;;;;4964456;28;20043;-55
2021/04/06 00:34:21;;;;;;;20.50;4.47;;;0.80;99.90;;;;;;4957639;28;20045;-56
2021/04/06 00:36:53;;;;;;;20.73;5.70;;;0.80;99.90;;;;;;4971247;28;20042;-55
2021/04/06 00:39:27;;;;;;;18.33;5.25;;;0.80;99.90;;;;;;4954446;28;20515;-56
2021/04/06 00:41:54;;;;;;;16.52;4.75;;;0.90;99.90;;;;;;4967420;28;20566;-56
2021/04/06 00:44:21;;;;;;;19.83;5.37;;;0.90;99.90;;;;;;4953001;28;20174;-53
2021/04/06 00:46:48;;;;;;;17.67;4.83;;;0.90;99.90;;;;;;4961376;28;20035;-55
2021/04/06 00:49:16;;;;;;;16.47;4.93;;;0.90;99.90;;;;;;4955426;28;20082;-57
2021/04/06 00:51:43;;;;;;;13.47;5.07;;;1.00;99.90;;;;;;4971971;28;20038;-54
2021/04/06 00:54:12;;;;;;;12.60;4.03;;;1.00;99.90;;;;;;4966237;28;20038;-60
2021/04/06 00:56:42;;;;;;;15.13;3.97;;;1.00;99.90;;;;;;4964482;28;20035;-57
2021/04/06 00:59:10;;;;;;;14.80;4.23;;;1.00;99.90;;;;;;4960535;28;20022;-53
2021/04/06 01:01:43;;;;;;;23.67;5.03;;;1.00;99.90;;;;;;4952339;28;20053;-56
2021/04/06 01:04:13;;;;;;;12.77;4.10;;;1.00;99.90;;;;;;4948699;28;20024;-54
2021/04/06 01:06:59;;;;;;;17.20;4.80;;;1.00;99.90;;;;;;4958230;28;20026;-54
2021/04/06 01:09:50;;;;;;;14.60;4.43;;;1.00;99.90;;;;;;4970557;28;20035;-53
2021/04/06 01:12:19;;;;;;;14.30;3.57;;;1.00;99.90;;;;;;4947573;28;20047;-58
2021/04/06 01:14:47;;;;;;;16.57;4.10;;;1.00;99.90;;;;;;4961803;28;20045;-56
2021/04/06 01:17:15;;;;;;;14.13;3.93;;;1.10;99.90;;;;;;4954895;28;20022;-58
2021/04/06 01:19:42;;;;;;;9.43;3.53;;;1.10;99.90;;;;;;4969380;28;20102;-58
2021/04/06 01:22:14;;;;;;;15.57;3.78;;;1.20;99.90;;;;;;4950517;28;20043;-56
2021/04/06 01:24:41;;;;;;;8.73;3.20;;;1.20;99.90;;;;;;4968719;28;20400;-55
2021/04/06 01:27:09;;;;;;;15.57;4.30;;;1.20;99.90;;;;;;4955729;28;20064;-56
2021/04/06 01:29:36;;;;;;;12.32;3.72;;;1.20;99.90;;;;;;4964089;28;20042;-56
2021/04/06 01:32:03;;;;;;;15.20;4.20;;;1.30;99.90;;;;;;4968132;28;20121;-56
2021/04/06 01:34:29;;;;;;;18.02;4.47;;;1.30;99.90;;;;;;4956749;28;20037;-54
2021/04/06 01:36:56;;;;;;;20.80;5.50;;;1.30;99.90;;;;;;4963819;28;20030;-52
2021/04/06 01:39:25;;;;;;;15.75;3.78;;;1.40;99.90;;;;;;4963937;28;20115;-56
2021/04/06 01:41:58;;;;;;;11.88;3.75;;;1.40;99.90;;;;;;4962272;28;20500;-56
2021/04/06 01:44:24;;;;;;;10.93;3.25;;;1.40;99.90;;;;;;4954905;28;20580;-55
2021/04/06 01:46:50;;;;;;;13.52;3.78;;;1.40;99.90;;;;;;4964818;28;20114;-54
2021/04/06 01:49:17;;;;;;;13.80;3.70;;;1.40;99.90;;;;;;4972669;28;20035;-55
2021/04/06 01:51:45;;;;;;;17.17;4.05;;;1.40;99.90;;;;;;4973180;28;20519;-56
2021/04/06 01:54:13;;;;;;;14.45;4.10;;;1.40;99.90;;;;;;4969291;28;20377;-59
2021/04/06 01:56:56;;;;;;;28.63;4.93;;;1.40;99.90;;;;;;4973395;28;20129;-56
2021/04/06 01:59:40;;;;;;;13.05;3.08;;;1.50;99.90;;;;;;4959739;28;20527;-55
2021/04/06 02:02:09;;;;;;;17.52;3.90;;;1.40;99.90;;;;;;4969319;28;20050;-53
2021/04/06 02:04:35;;;;;;;20.60;5.93;;;1.50;99.90;;;;;;4968816;28;20057;-57
2021/04/06 02:07:07;;;;;;;14.93;4.40;;;1.50;99.90;;;;;;4970593;28;20089;-56
2021/04/06 02:09:33;;;;;;;20.42;3.45;;;1.50;99.90;;;;;;4967108;28;20249;-55
2021/04/06 02:11:58;;;;;;;11.43;3.58;;;1.40;99.90;;;;;;4971404;28;20515;-56
2021/04/06 02:14:25;;;;;;;18.40;3.60;;;1.40;99.90;;;;;;4975882;28;20085;-59
2021/04/06 02:16:53;;;;;;;16.00;3.85;;;1.30;99.90;;;;;;4974091;28;20042;-57
2021/04/06 02:19:31;;;;;;;8.13;2.92;;;1.20;99.90;;;;;;4967690;28;20027;-51
2021/04/06 02:22:01;;;;;;;14.88;3.92;;;1.20;99.90;;;;;;4968387;28;20102;-52
2021/04/06 02:24:41;;;;;;;20.92;5.53;;;1.20;99.90;;;;;;4973440;28;20417;-53
2021/04/06 02:27:23;;;;;;;13.70;4.30;;;1.20;99.90;;;;;;4971641;28;20098;-55
2021/04/06 02:30:00;;;;;;;17.52;5.20;;;1.20;99.90;;;;;;4970307;28;20103;-52
2021/04/06 02:32:29;;;;;;;15.67;4.73;;;1.20;99.90;;;;;;4972979;28;20027;-51
2021/04/06 02:35:00;;;;;;;15.20;4.30;;;1.20;99.90;;;;;;4971166;28;20035;-53
2021/04/06 02:37:31;;;;;;;12.90;5.10;;;1.10;99.90;;;;;;4973590;28;20039;-50
2021/04/06 02:40:08;;;;;;;16.40;4.38;;;1.10;99.90;;;;;;4972173;28;20026;-52
2021/04/06 02:42:44;;;;;;;11.82;5.28;;;1.10;99.90;;;;;;4953819;28;20043;-53
2021/04/06 02:45:13;;;;;;;14.37;4.90;;;1.10;99.90;;;;;;4968083;28;20031;-53
2021/04/06 02:47:51;;;;;;;17.20;4.90;;;1.10;99.90;;;;;;4972688;28;20031;-52
2021/04/06 02:50:23;;;;;;;16.70;4.90;;;1.10;99.90;;;;;;4968141;28;20169;-51
2021/04/06 02:52:50;;;;;;;18.67;4.35;;;1.10;99.90;;;;;;4961904;28;20062;-53
2021/04/06 02:55:16;;;;;;;18.30;4.20;;;1.10;99.90;;;;;;4972013;28;20110;-54
2021/04/06 02:57:47;;;;;;;17.90;4.50;;;1.10;99.90;;;;;;4968101;28;20500;-53
2021/04/06 03:00:28;;;;;;;20.20;4.60;;;1.00;99.90;;;;;;4966036;28;20480;-50
2021/04/06 03:02:55;;;;;;;12.95;4.43;;;1.00;99.90;;;;;;4962383;28;20069;-56
2021/04/06 03:05:36;;;;;;;13.45;4.45;;;1.00;99.90;;;;;;4972561;28;20042;-53
2021/04/06 03:08:02;;;;;;;14.67;4.43;;;1.00;99.90;;;;;;4971089;28;20080;-51
2021/04/06 03:10:29;;;;;;;19.90;5.20;;;1.00;99.90;;;;;;4972871;28;20035;-53
2021/04/06 03:12:57;;;;;;;14.75;3.92;;;1.00;99.90;;;;;;4967744;28;20049;-55
2021/04/06 03:15:25;;;;;;;18.63;4.73;;;1.00;99.90;;;;;;4972921;28;20070;-52
2021/04/06 03:17:53;;;;;;;14.63;3.77;;;1.00;99.90;;;;;;4971848;28;20534;-54
2021/04/06 03:20:20;;;;;;;18.43;5.03;;;1.00;99.90;;;;;;4973204;28;20039;-52
2021/04/06 03:22:49;;;;;;;16.63;3.87;;;0.90;99.90;;;;;;4967999;28;20567;-55
2021/04/06 03:25:16;;;;;;;19.83;4.87;;;0.90;99.90;;;;;;4963963;28;20038;-53
2021/04/06 03:27:47;;;;;;;14.93;4.30;;;0.90;99.90;;;;;;4972299;28;20118;-55
2021/04/06 03:30:14;;;;;;;15.20;4.15;;;0.90;99.90;;;;;;4971234;28;20043;-55
2021/04/06 03:32:41;;;;;;;18.77;5.00;;;0.90;99.90;;;;;;4970810;28;20019;-54
2021/04/06 03:35:08;;;;;;;23.17;4.53;;;0.80;99.90;;;;;;4972426;28;20038;-50
2021/04/06 03:37:36;;;;;;;21.50;5.03;;;0.80;99.90;;;;;;4972297;28;20045;-54
2021/04/06 03:40:04;;;;;;;21.10;4.03;;;0.80;99.90;;;;;;4971411;28;20496;-53
2021/04/06 03:42:29;;;;;;;20.90;5.85;;;0.80;99.90;;;;;;4968979;28;20035;-55
2021/04/06 03:45:15;;;;;;;16.15;3.90;;;0.80;99.90;;;;;;4972234;28;20026;-54
2021/04/06 03:47:58;;;;;;;21.70;4.30;;;0.90;99.90;;;;;;4966692;28;20043;-53
2021/04/06 03:50:50;;;;;;;18.70;4.57;;;0.90;99.90;;;;;;4971512;28;20510;-55
2021/04/06 03:53:16;;;;;;;28.47;4.80;;;0.80;99.90;;;;;;4962575;28;20488;-51
2021/04/06 03:55:43;;;;;;;23.88;5.03;;;0.90;99.90;;;;;;4971220;28;20039;-56
2021/04/06 03:58:18;;;;;;;15.88;4.43;;;0.90;99.90;;;;;;4970245;28;20062;-52
2021/04/06 04:00:43;;;;;;;25.73;5.32;;;0.90;99.90;;;;;;4945596;28;20102;-54
2021/04/06 04:03:09;;;;;;;15.35;4.68;;;0.90;99.90;;;;;;4961527;28;20122;-56
2021/04/06 04:05:35;;;;;;;17.05;4.60;;;0.90;99.90;;;;;;4958860;28;20110;-55
2021/04/06 04:08:01;;;;;;;15.70;4.88;;;0.90;99.90;;;;;;4967710;28;20117;-54
2021/04/06 04:10:27;;;;;;;17.63;4.25;;;0.90;99.90;;;;;;4955628;28;20039;-57
2021/04/06 04:12:54;;;;;;;15.63;5.20;;;0.90;99.90;;;;;;4964608;28;20437;-52
2021/04/06 04:15:20;;;;;;;19.50;5.43;;;0.90;99.90;;;;;;4970890;28;20436;-53
2021/04/06 04:17:49;;;;;;;27.90;6.57;;;0.90;99.90;;;;;;4970730;28;20030;-53
2021/04/06 04:20:17;;;;;;;17.40;6.13;;;0.90;99.90;;;;;;4964850;28;20537;-55
2021/04/06 04:22:43;;;;;;;27.27;6.93;;;0.90;99.90;;;;;;4970210;28;20122;-55
2021/04/06 04:25:10;;;;;;;16.40;5.80;;;0.90;99.90;;;;;;4970557;28;20031;-54
2021/04/06 04:27:36;;;;;;;26.20;8.48;;;0.90;99.90;;;;;;4966747;28;20035;-53
2021/04/06 04:30:02;;;;;;;20.10;7.53;;;0.90;99.90;;;;;;4959268;28;20039;-55
2021/04/06 04:32:28;;;;;;;20.58;6.97;;;0.90;99.90;;;;;;4964343;28;20149;-54
2021/04/06 04:34:53;;;;;;;22.02;6.53;;;0.90;99.90;;;;;;4970916;28;20520;-56
2021/04/06 04:37:19;;;;;;;18.23;7.22;;;1.00;99.90;;;;;;4967575;28;20415;-55
2021/04/06 04:39:44;;;;;;;19.92;8.20;;;0.90;99.90;;;;;;4963018;28;20477;-54
2021/04/06 04:42:10;;;;;;;34.33;8.93;;;0.90;99.90;;;;;;4967553;28;20370;-57
2021/04/06 04:44:36;;;;;;;23.23;8.53;;;0.90;99.90;;;;;;4971023;28;20092;-57
2021/04/06 04:47:02;;;;;;;20.07;8.50;;;1.00;99.90;;;;;;4967029;28;20433;-53
2021/04/06 04:49:28;;;;;;;27.23;7.55;;;1.00;99.90;;;;;;4970517;28;20114;-56
2021/04/06 04:51:53;;;;;;;26.33;8.45;;;1.00;99.90;;;;;;4965142;28;20028;-52
2021/04/06 04:54:19;;;;;;;24.13;7.70;;;1.00;99.90;;;;;;4970049;28;20065;-53
2021/04/06 04:56:45;;;;;;;19.35;8.57;;;1.00;99.90;;;;;;4970737;28;20022;-57
2021/04/06 04:59:10;;;;;;;20.48;8.88;;;1.00;99.90;;;;;;4970515;28;20031;-53
2021/04/06 05:01:36;;;;;;;22.92;9.18;;;1.00;99.90;;;;;;4964748;28;20034;-52
2021/04/06 05:04:02;;;;;;;22.80;6.93;;;1.00;99.90;;;;;;4965391;28;20031;-54
2021/04/06 05:06:28;;;;;;;25.08;7.70;;;1.00;99.90;;;;;;4969735;28;20046;-56
2021/04/06 05:08:54;;;;;;;27.92;8.13;;;1.00;99.90;;;;;;4969644;28;20034;-54
2021/04/06 05:11:19;;;;;;;24.73;7.27;;;1.00;99.90;;;;;;4971032;28;20031;-55
2021/04/06 05:13:46;;;;;;;25.10;8.73;;;1.00;99.90;;;;;;4970000;28;20749;-55
2021/04/06 05:16:12;;;;;;;23.30;8.70;;;1.00;99.90;;;;;;4970963;28;20041;-55
2021/04/06 05:18:37;;;;;;;26.65;9.25;;;1.00;99.90;;;;;;4962213;28;20574;-54
2021/04/06 05:21:03;;;;;;;21.88;9.55;;;1.00;99.90;;;;;;4967155;28;20037;-51
2021/04/06 05:23:29;;;;;;;29.27;8.60;;;1.10;99.90;;;;;;4965511;28;20034;-54
2021/04/06 05:25:55;;;;;;;21.77;7.60;;;1.00;99.90;;;;;;4970341;28;20420;-55
2021/04/06 05:28:21;;;;;;;24.17;9.65;;;1.00;99.90;;;;;;4972596;28;20039;-53
2021/04/06 05:30:46;;;;;;;21.65;7.40;;;1.10;99.90;;;;;;4969887;28;20066;-54
2021/04/06 05:33:12;;;;;;;20.02;6.70;;;1.10;99.90;;;;;;4968428;28;20043;-54
2021/04/06 05:35:38;;;;;;;18.98;5.40;;;1.10;99.90;;;;;;4953969;28;20034;-53
2021/04/06 05:38:03;;;;;;;21.02;5.28;;;1.10;99.90;;;;;;4953237;28;20106;-54
2021/04/06 05:40:29;;;;;;;18.58;4.50;;;1.10;99.90;;;;;;4952891;28;20019;-51
2021/04/06 05:42:54;;;;;;;24.63;5.20;;;1.10;99.90;;;;;;4962820;28;20030;-56
2021/04/06 05:45:20;;;;;;;27.30;3.65;;;1.10;99.90;;;;;;4970373;28;20042;-56
2021/04/06 05:47:50;;;;;;;24.33;5.43;;;1.10;99.90;;;;;;4969904;28;20562;-54
2021/04/06 05:50:16;;;;;;;17.60;4.57;;;1.00;99.90;;;;;;4970274;28;20715;-56
2021/04/06 05:52:42;;;;;;;17.70;3.63;;;1.00;99.90;;;;;;4951067;28;20111;-53
2021/04/06 05:55:08;;;;;;;17.02;3.97;;;1.00;99.90;;;;;;4967798;28;20054;-54
2021/04/06 05:57:34;;;;;;;13.77;5.80;;;1.00;99.90;;;;;;4968235;28;20081;-52
2021/04/06 06:00:00;;;;;;;13.75;3.42;;;1.10;99.90;;;;;;4952688;28;20042;-52
2021/04/06 06:02:26;;;;;;;21.25;4.10;;;1.10;99.90;;;;;;4964292;28;20025;-53
2021/04/06 06:04:54;;;;;;;16.85;3.22;;;1.10;99.90;;;;;;4970603;28;20130;-52
2021/04/06 06:07:20;;;;;;;19.48;2.85;;;1.10;99.90;;;;;;4966752;28;20035;-55
2021/04/06 06:09:46;;;;;;;11.52;2.88;;;1.20;99.90;;;;;;4970320;28;20039;-52
2021/04/06 06:12:14;;;;;;;25.30;4.35;;;1.20;99.90;;;;;;4966889;28;20034;-53
2021/04/06 06:14:44;;;;;;;20.67;3.10;;;1.20;99.90;;;;;;4970636;28;20062;-52
2021/04/06 06:17:21;;;;;;;22.38;3.10;;;1.30;99.90;;;;;;4964171;28;20030;-52
2021/04/06 06:19:58;;;;;;;11.43;3.40;;;1.30;99.90;;;;;;4962752;28;20027;-51
2021/04/06 06:22:26;;;;;;;16.70;3.08;;;1.30;99.90;;;;;;4967080;28;20035;-55
2021/04/06 06:25:11;;;;;;;19.60;4.30;;;1.30;99.90;;;;;;4971795;28;20026;-56
2021/04/06 06:27:39;;;;;;;14.95;3.53;;;1.40;99.90;;;;;;4973227;28;20035;-54
2021/04/06 06:30:28;;;;;;;17.63;3.33;;;1.40;99.90;;;;;;4970916;28;20123;-55
2021/04/06 06:33:23;;;;;;;20.15;3.85;;;1.50;99.90;;;;;;4965087;28;20380;-52
2021/04/06 06:35:53;;;;;;;17.48;3.10;;;1.70;99.90;;;;;;4961657;28;20054;-54
2021/04/06 06:38:31;;;;;;;16.52;3.25;;;1.60;99.90;;;;;;4970090;28;20035;-54
2021/04/06 06:41:10;;;;;;;7.20;2.65;;;1.60;99.90;;;;;;4962599;28;20047;-56
2021/04/06 06:43:36;;;;;;;12.43;2.88;;;1.70;99.90;;;;;;4971360;28;20872;-55
2021/04/06 06:46:02;;;;;;;12.00;4.60;;;1.70;99.90;;;;;;4967135;28;20619;-54
2021/04/06 06:48:32;;;;;;;11.93;3.17;;;1.60;99.90;;;;;;4972659;28;20039;-55
2021/04/06 06:51:03;;;;;;;17.00;3.20;;;1.60;99.90;;;;;;4971420;28;20109;-54
2021/04/06 06:53:34;;;;;;;17.55;3.05;;;1.70;99.90;;;;;;4969393;28;20031;-53
2021/04/06 06:56:01;;;;;;;12.02;3.03;;;1.80;99.90;;;;;;4972015;28;20473;-54
2021/04/06 06:58:31;;;;;;;12.32;3.10;;;1.80;99.90;;;;;;4965581;28;20035;-55
2021/04/06 07:00:57;;;;;;;16.67;5.55;;;1.90;99.90;;;;;;4964597;28;20019;-55
2021/04/06 07:03:22;;;;;;;13.13;3.65;;;2.00;99.90;;;;;;4969099;28;20034;-55
2021/04/06 07:05:48;;;;;;;16.65;4.05;;;2.00;99.90;;;;;;4965765;28;20035;-55
2021/04/06 07:08:14;;;;;;;9.20;2.78;;;2.00;99.90;;;;;;4961563;28;20027;-56
2021/04/06 07:10:42;;;;;;;12.85;3.40;;;1.90;99.90;;;;;;4973274;28;20085;-54
2021/04/06 07:13:09;;;;;;;12.68;3.00;;;1.90;99.90;;;;;;4971991;28;20027;-56
2021/04/06 07:15:43;;;;;;;19.13;4.45;;;1.90;99.90;;;;;;4975197;28;20039;-57
2021/04/06 07:18:13;;;;;;;22.73;4.10;;;1.90;99.90;;;;;;4966565;28;20055;-56
2021/04/06 07:20:41;;;;;;;18.65;3.85;;;1.90;99.90;;;;;;4978268;28;20046;-57
2021/04/06 07:23:12;;;;;;;14.02;3.90;;;1.80;99.90;;;;;;4958169;28;20047;-56
2021/04/06 07:25:40;;;;;;;10.70;4.10;;;1.90;99.90;;;;;;4971537;28;20042;-57
2021/04/06 07:28:06;;;;;;;10.00;3.20;;;2.00;99.90;;;;;;4963102;28;20089;-59
2021/04/06 07:30:31;;;;;;;14.63;4.13;;;2.00;99.90;;;;;;4972068;28;20066;-52
2021/04/06 07:32:58;;;;;;;12.68;3.17;;;2.10;99.90;;;;;;4959790;28;20037;-52
2021/04/06 07:35:24;;;;;;;8.95;2.92;;;2.10;99.90;;;;;;4970583;28;20146;-55
2021/04/06 07:37:50;;;;;;;15.32;4.85;;;2.30;99.90;;;;;;4972356;28;20034;-56
2021/04/06 07:40:19;;;;;;;12.48;2.80;;;2.40;99.90;;;;;;4972272;28;20030;-57
2021/04/06 07:42:46;;;;;;;12.70;2.50;;;2.70;99.90;;;;;;4967467;28;20031;-55
2021/04/06 07:45:36;;;;;;;11.77;2.67;;;3.60;99.90;;;;;;4971613;28;20050;-58
2021/04/06 07:48:02;;;;;;;9.73;3.40;;;4.20;99.90;;;;;;4970265;28;20492;-56
2021/04/06 07:50:39;;;;;;;11.68;3.22;;;4.40;99.90;;;;;;4971693;28;20093;-57
2021/04/06 07:53:28;;;;;;;13.25;2.72;;;4.50;99.90;;;;;;4969223;28;20038;-56
2021/04/06 07:55:59;;;;;;;10.35;3.03;;;5.50;99.90;;;;;;4970430;28;20026;-57
2021/04/06 07:58:45;;;;;;;8.77;3.13;;;5.70;99.90;;;;;;4968806;28;20034;-59
2021/04/06 08:01:13;;;;;;;10.98;3.45;;;6.80;99.90;;;;;;4943181;28;20140;-57
2021/04/06 08:04:00;;;;;;;10.43;3.05;;;7.10;99.90;;;;;;4967386;28;20027;-58
2021/04/06 08:06:28;;;;;;;14.05;3.55;;;6.80;99.90;;;;;;4969666;28;20027;-58
2021/04/06 08:08:54;;;;;;;12.88;3.45;;;6.40;99.90;;;;;;4970390;28;20484;-57
2021/04/06 08:11:20;;;;;;;10.15;3.92;;;6.00;99.90;;;;;;4972269;28;20061;-55
2021/04/06 08:13:47;;;;;;;16.63;4.18;;;5.70;99.90;;;;;;4966864;28;20038;-57
2021/04/06 08:16:18;;;;;;;13.68;3.03;;;5.20;99.90;;;;;;4971732;28;20404;-55
2021/04/06 08:18:48;;;;;;;13.98;3.50;;;5.00;99.90;;;;;;4966557;28;20029;-52
2021/04/06 08:21:15;;;;;;;12.30;2.20;;;5.10;99.90;;;;;;4963058;28;20019;-57
2021/04/06 08:23:43;;;;;;;8.68;2.35;;;5.30;99.90;;;;;;4947189;28;20039;-55
2021/04/06 08:26:33;;;;;;;12.18;2.40;;;5.30;99.90;;;;;;4970756;28;20030;-56
2021/04/06 08:29:24;;;;;;;7.28;2.10;;;4.60;99.90;;;;;;4969896;28;20035;-56
2021/04/06 08:32:12;;;;;;;16.42;4.00;;;4.20;99.90;;;;;;4968056;28;20026;-57
2021/04/06 08:34:52;;;;;;;10.48;3.28;;;4.10;99.90;;;;;;4964771;28;20042;-54
2021/04/06 08:37:34;;;;;;;11.30;2.47;;;4.80;99.90;;;;;;4964249;28;20046;-56
2021/04/06 08:40:00;;;;;;;12.48;2.45;;;6.10;99.90;;;;;;4965261;28;20031;-56
2021/04/06 08:42:26;;;;;;;10.23;2.58;;;6.90;99.90;;;;;;4959037;28;20038;-57
2021/04/06 08:44:57;;;;;;;7.82;2.22;;;7.00;99.90;;;;;;4968646;28;20022;-55
2021/04/06 08:47:39;;;;;;;8.05;2.10;;;6.20;99.90;;;;;;4966729;28;20026;-58
2021/04/06 08:50:08;;;;;;;11.63;2.63;;;5.10;99.90;;;;;;4953725;28;20527;-56
2021/04/06 08:52:34;;;;;;;14.98;2.30;;;4.70;99.90;;;;;;4951794;28;20113;-56
2021/04/06 08:55:12;;;;;;;10.05;2.15;;;5.10;99.90;;;;;;4970363;28;20182;-58
2021/04/06 08:57:38;;;;;;;15.05;4.15;;;6.30;99.90;;;;;;4970412;28;20035;-56
2021/04/06 09:00:15;;;;;;;14.00;2.00;;;6.70;99.90;;;;;;4962798;28;20018;-57
2021/04/06 09:02:41;;;;;;;7.93;1.90;;;7.70;99.90;;;;;;4967731;28;20023;-56
2021/04/06 09:05:07;;;;;;;9.90;2.20;;;7.70;98.00;;;;;;4970090;28;20054;-57
2021/04/06 09:07:37;;;;;;;12.23;2.53;;;7.00;98.60;;;;;;4967778;28;20034;-57
2021/04/06 09:10:12;;;;;;;10.27;1.80;;;6.30;99.90;;;;;;4974783;28;20400;-53
2021/04/06 09:12:43;;;;;;;12.48;2.33;;;5.60;99.90;;;;;;4966438;28;20050;-56
2021/04/06 09:15:12;;;;;;;7.63;1.67;;;5.40;99.90;;;;;;4971371;28;20034;-57
2021/04/06 09:17:39;;;;;;;11.75;2.72;;;6.00;99.90;;;;;;4962951;28;20865;-58
2021/04/06 09:20:13;;;;;;;8.73;1.83;;;6.70;99.90;;;;;;4958954;28;20047;-57
2021/04/06 09:22:40;;;;;;;8.32;2.03;;;7.70;99.80;;;;;;4966848;28;20019;-56
2021/04/06 09:25:18;;;;;;;6.30;1.55;;;7.50;98.00;;;;;;4969681;28;20034;-58
2021/04/06 09:27:52;;;;;;;11.90;2.88;;;7.20;99.90;;;;;;4970084;28;20484;-54
2021/04/06 09:30:20;;;;;;;8.45;2.42;;;6.70;99.90;;;;;;4968892;28;20026;-57
2021/04/06 09:32:48;;;;;;;11.65;2.17;;;6.20;99.90;;;;;;4968480;28;20127;-57
2021/04/06 09:35:17;;;;;;;10.27;2.72;;;6.00;99.90;;;;;;4970202;28;20035;-57
2021/04/06 09:37:43;;;;;;;8.43;3.33;;;5.40;99.90;;;;;;4970467;28;20022;-57
2021/04/06 09:40:09;;;;;;;10.00;2.53;;;5.00;99.90;;;;;;4967819;28;20028;-57
2021/04/06 09:42:35;;;;;;;17.77;2.60;;;4.90;99.90;;;;;;4967572;28;20015;-58
2021/04/06 09:45:03;;;;;;;12.88;3.58;;;5.10;99.90;;;;;;4973309;28;20153;-57
2021/04/06 09:47:28;;;;;;;9.05;2.10;;;5.50;99.90;;;;;;4968439;28;20026;-56
2021/04/06 09:49:54;;;;;;;10.07;2.53;;;6.10;99.90;;;;;;4968899;28;20023;-56
2021/04/06 09:52:24;;;;;;;7.15;2.33;;;6.80;99.90;;;;;;4964579;28;20089;-56
2021/04/06 09:54:55;;;;;;;8.75;2.50;;;6.80;99.90;;;;;;4970153;28;20026;-56
2021/04/06 09:57:24;;;;;;;6.43;1.80;;;6.60;99.90;;;;;;4966657;28;20055;-55
2021/04/06 09:59:56;;;;;;;7.57;2.55;;;6.10;99.90;;;;;;4964592;28;20029;-57
2021/04/06 10:02:29;;;;;;;6.90;2.50;;;6.20;99.90;;;;;;4970206;28;20026;-56
2021/04/06 10:04:55;;;;;;;7.95;2.90;;;6.70;99.90;;;;;;4964591;28;20022;-57
2021/04/06 10:07:27;;;;;;;4.60;1.95;;;7.00;99.90;;;;;;4964577;28;20127;-55
2021/04/06 10:09:56;;;;;;;6.47;2.22;;;6.90;99.90;;;;;;4973438;28;20037;-57
2021/04/06 10:12:24;;;;;;;4.60;2.00;;;5.90;99.90;;;;;;4969417;28;20035;-56
2021/04/06 10:14:51;;;;;;;6.80;2.15;;;5.70;99.90;;;;;;4972743;28;20324;-56
2021/04/06 10:17:18;;;;;;;8.98;2.53;;;5.90;99.90;;;;;;4968692;28;20023;-55
2021/04/06 10:19:55;;;;;;;9.98;2.95;;;6.30;99.90;;;;;;4967009;28;20496;-55
2021/04/06 10:22:24;;;;;;;8.02;3.03;;;6.90;99.90;;;;;;4968575;28;20388;-58
2021/04/06 10:24:59;;;;;;;10.40;2.25;;;6.00;99.90;;;;;;4972465;28;20034;-55
2021/04/06 10:27:36;;;;;;;8.82;2.60;;;6.10;99.90;;;;;;4970646;28;20058;-54
2021/04/06 10:30:06;;;;;;;10.05;3.30;;;6.50;99.90;;;;;;4969484;28;20039;-55
2021/04/06 10:32:39;;;;;;;10.77;2.88;;;6.10;99.90;;;;;;4969221;28;20043;-55
2021/04/06 10:35:20;;;;;;;15.57;4.20;;;5.80;99.90;;;;;;4972508;28;20031;-56
2021/04/06 10:37:55;;;;;;;6.35;2.05;;;6.00;99.90;;;;;;4972563;28;20034;-57
2021/04/06 10:40:41;;;;;;;9.88;3.30;;;5.90;99.90;;;;;;4966098;28;20033;-58
2021/04/06 10:43:13;;;;;;;10.82;3.30;;;5.90;99.90;;;;;;4963324;28;20062;-51
2021/04/06 10:45:46;;;;;;;6.43;2.90;;;5.70;99.90;;;;;;4965755;28;20019;-55
2021/04/06 10:48:23;;;;;;;14.90;3.40;;;5.70;99.90;;;;;;4965527;28;20034;-55
2021/04/06 10:51:06;;;;;;;6.35;3.00;;;6.30;99.90;;;;;;4970897;28;20095;-55
2021/04/06 10:53:37;;;;;;;10.85;3.80;;;7.00;99.90;;;;;;4967852;28;20046;-57
2021/04/06 10:56:05;;;;;;;6.18;2.33;;;7.90;99.70;;;;;;4972406;28;20027;-58
2021/04/06 10:58:34;;;;;;;7.13;2.90;;;7.30;96.40;;;;;;4964696;28;20031;-56
2021/04/06 11:01:08;;;;;;;7.68;3.30;;;6.90;97.30;;;;;;4966202;28;20494;-58
2021/04/06 11:03:38;;;;;;;7.70;2.97;;;6.50;98.70;;;;;;4969087;28;20031;-57
2021/04/06 11:06:20;;;;;;;4.80;2.25;;;6.10;99.80;;;;;;4973150;28;20023;-55
2021/04/06 11:08:49;;;;;;;6.88;1.95;;;6.20;99.90;;;;;;4969572;28;20042;-56
2021/04/06 11:11:30;;;;;;;7.88;2.30;;;5.90;99.90;;;;;;4968063;28;20042;-56
2021/04/06 11:13:58;;;;;;;11.20;2.85;;;4.90;99.90;;;;;;4966296;28;20401;-55
2021/04/06 11:16:24;;;;;;;7.32;2.53;;;4.00;99.90;;;;;;4959702;28;20136;-54
2021/04/06 11:19:20;;;;;;;6.03;2.55;;;3.50;99.90;;;;;;4967159;28;20404;-54
2021/04/06 11:21:48;;;;;;;12.88;2.83;;;3.40;99.90;;;;;;4932027;28;20173;-53
2021/04/06 11:24:15;;;;;;;10.63;3.40;;;3.70;99.90;;;;;;4962573;28;20114;-55
2021/04/06 11:26:41;;;;;;;10.13;3.22;;;4.40;99.90;;;;;;4952783;28;20034;-53
2021/04/06 11:29:09;;;;;;;7.05;2.90;;;5.00;99.90;;;;;;4967264;28;20405;-55
2021/04/06 11:31:36;;;;;;;8.13;2.45;;;5.40;99.90;;;;;;4969180;28;20431;-54
2021/04/06 11:34:04;;;;;;;9.45;4.80;;;5.90;99.90;;;;;;4970076;28;20074;-55
2021/04/06 11:36:30;;;;;;;10.43;2.63;;;6.20;99.90;;;;;;4966510;28;20038;-56
2021/04/06 11:38:56;;;;;;;9.77;2.38;;;6.70;99.90;;;;;;4966271;28;20030;-54
2021/04/06 11:41:21;;;;;;;4.45;1.42;;;7.20;99.90;;;;;;4970360;28;20027;-54
2021/04/06 11:43:47;;;;;;;6.63;1.50;;;7.00;99.90;;;;;;4962695;28;20500;-53
2021/04/06 11:46:14;;;;;;;6.75;1.50;;;6.90;99.90;;;;;;4970501;28;20439;-56
2021/04/06 11:48:40;;;;;;;8.65;2.13;;;6.70;99.90;;;;;;4962688;28;20543;-56
2021/04/06 11:51:06;;;;;;;5.65;1.80;;;5.90;99.90;;;;;;4967342;28;20035;-52
2021/04/06 11:53:31;;;;;;;3.17;1.58;;;5.90;99.90;;;;;;4968282;28;20043;-53
2021/04/06 11:55:57;;;;;;;5.97;1.60;;;5.20;99.90;;;;;;4971717;28;20027;-56
2021/04/06 11:58:23;;;;;;;4.22;1.38;;;4.80;99.90;;;;;;4968672;28;20035;-54
2021/04/06 12:00:48;;;;;;;12.52;1.98;;;3.80;99.90;;;;;;4972405;28;20586;-54
2021/04/06 12:03:14;;;;;;;5.30;1.70;;;2.90;99.90;;;;;;4968134;28;20019;-56
2021/04/06 12:05:39;;;;;;;5.03;2.00;;;2.40;99.90;;;;;;4972228;28;20070;-55
2021/04/06 12:08:05;;;;;;;4.55;1.60;;;2.30;99.90;;;;;;4969893;28;20081;-57
2021/04/06 12:10:32;;;;;;;6.63;1.90;;;2.30;99.90;;;;;;4973848;28;20090;-56
2021/04/06 12:12:59;;;;;;;6.82;1.52;;;2.20;99.90;;;;;;4968368;28;20471;-53
2021/04/06 12:15:25;;;;;;;5.75;1.00;;;2.50;99.90;;;;;;4971418;28;20031;-52
2021/04/06 12:17:51;;;;;;;3.80;1.15;;;2.90;99.90;;;;;;4965765;28;20037;-54
2021/04/06 12:20:17;;;;;;;8.05;1.65;;;3.50;99.90;;;;;;4971291;28;20410;-53
2021/04/06 12:22:43;;;;;;;2.53;1.67;;;3.70;99.90;;;;;;4960746;28;20456;-55
2021/04/06 12:25:09;;;;;;;3.25;1.42;;;3.40;99.90;;;;;;4966447;28;20066;-55
2021/04/06 12:27:35;;;;;;;4.45;2.15;;;3.50;99.90;;;;;;4961135;28;20060;-57
2021/04/06 12:30:00;;;;;;;5.47;2.47;;;3.20;99.90;;;;;;4971941;28;20053;-54
2021/04/06 12:32:26;;;;;;;6.43;2.55;;;3.20;99.90;;;;;;4972089;28;20027;-56
2021/04/06 12:34:53;;;;;;;8.18;2.42;;;3.10;99.90;;;;;;4963078;28;20381;-52
2021/04/06 12:37:20;;;;;;;5.30;1.70;;;2.90;99.90;;;;;;4956921;28;20038;-55
2021/04/06 12:39:47;;;;;;;3.30;1.52;;;2.90;99.90;;;;;;4962027;28;20731;-56
2021/04/06 12:42:13;;;;;;;2.05;0.85;;;3.10;99.90;;;;;;4970092;28;20481;-55
2021/04/06 12:44:38;;;;;;;1.25;0.85;;;3.20;99.90;;;;;;4971703;28;20033;-56
2021/04/06 12:47:04;;;;;;;2.45;1.10;;;3.60;99.90;;;;;;4967912;28;20061;-56
2021/04/06 12:49:29;;;;;;;1.25;0.65;;;3.90;99.90;;;;;;4971083;28;20039;-54
2021/04/06 12:51:55;;;;;;;2.13;0.68;;;4.30;99.90;;;;;;4969365;28;20081;-55
2021/04/06 12:54:21;;;;;;;2.80;0.60;;;4.10;99.90;;;;;;4970539;28;20046;-56
2021/04/06 12:56:46;;;;;;;3.78;0.80;;;4.20;99.90;;;;;;4969659;28;20042;-57
2021/04/06 12:59:12;;;;;;;3.50;1.00;;;4.40;99.90;;;;;;4971940;28;20093;-55
2021/04/06 13:01:37;;;;;;;2.63;0.80;;;4.60;99.90;;;;;;4970895;28;20038;-57
2021/04/06 13:04:03;;;;;;;6.13;1.48;;;4.80;99.90;;;;;;4967327;28;20037;-57